Time;durP1;ratioP1;P1;durP2;ratioP2;P2;SDS_P1;SDS_P2;PMS_P1;PMS_P2;Temp;Humidity;BMP_temperature;BMP_pressure;BME280_temperature;BME280_humidity;BME280_pressure;Samples;Min_cycle;Max_cycle;Signal;HPM_P1;HPM_P2
2021/06/15 00:02:14;;;;;;;;;6.50;6.00;;;;;24.83;49.73;101611.84;4975716;28;45874;-83
2021/06/15 00:04:40;;;;;;;;;6.75;6.75;;;;;24.75;50.50;101609.00;4975448;28;45550;-84
2021/06/15 00:07:05;;;;;;;;;6.00;6.00;;;;;24.74;50.33;101608.13;4974864;28;51792;-83
2021/06/15 00:09:30;;;;;;;;;10.50;7.75;;;;;24.69;50.59;101605.88;4975185;28;45461;-83
2021/06/15 00:11:56;;;;;;;;;9.25;7.75;;;;;24.66;50.05;101602.59;4974205;28;46670;-83
2021/06/15 00:14:21;;;;;;;;;13.75;8.00;;;;;24.61;50.85;101602.16;4974442;28;45715;-83
2021/06/15 00:16:46;;;;;;;;;8.00;7.00;;;;;24.59;50.18;101601.44;4975287;28;45510;-82
2021/06/15 00:19:12;;;;;;;;;8.00;8.00;;;;;24.55;50.14;101600.88;4974697;28;45958;-83
2021/06/15 00:21:37;;;;;;;;;11.00;9.50;;;;;24.51;50.85;101593.22;4974457;28;45617;-83
2021/06/15 00:24:03;;;;;;;;;8.25;7.50;;;;;24.50;50.66;101595.06;4974421;28;45606;-83
2021/06/15 00:26:28;;;;;;;;;8.75;7.50;;;;;24.45;50.96;101594.59;4974753;28;45511;-82
2021/06/15 00:28:53;;;;;;;;;8.50;8.25;;;;;24.42;51.03;101592.19;4974896;28;45533;-83
2021/06/15 00:31:23;;;;;;;;;9.25;7.00;;;;;24.40;50.95;101594.16;4974383;28;45724;-83
2021/06/15 00:33:48;;;;;;;;;8.50;7.25;;;;;24.39;50.86;101595.16;4974032;28;45500;-76
2021/06/15 00:36:14;;;;;;;;;9.50;8.00;;;;;24.38;51.42;101596.13;4974279;28;45387;-83
2021/06/15 00:38:39;;;;;;;;;9.25;8.00;;;;;24.35;50.88;101601.75;4974497;28;45818;-83
2021/06/15 00:41:04;;;;;;;;;7.50;7.00;;;;;24.28;51.17;101597.91;4974402;28;45436;-82
2021/06/15 00:43:30;;;;;;;;;9.75;9.00;;;;;24.25;51.60;101608.91;4974648;28;45605;-83
2021/06/15 00:45:55;;;;;;;;;9.25;8.25;;;;;24.20;51.98;101599.41;4973382;28;45460;-83
2021/06/15 00:48:31;;;;;;;;;8.50;8.00;;;;;24.14;51.90;101597.25;4974167;28;45954;-83
2021/06/15 00:50:56;;;;;;;;;8.25;8.25;;;;;24.13;52.01;101602.75;4973918;28;47814;-82
2021/06/15 00:53:22;;;;;;;;;7.75;7.75;;;;;24.09;51.49;101604.00;4974044;28;45313;-83
2021/06/15 00:55:49;;;;;;;;;11.25;8.00;;;;;24.06;51.47;101604.25;4975266;28;45612;-83
2021/06/15 00:58:14;;;;;;;;;7.50;7.50;;;;;24.04;51.78;101604.41;4973118;28;45557;-84
2021/06/15 01:00:40;;;;;;;;;8.50;8.50;;;;;24.03;51.60;101604.53;4974090;28;45611;-83
2021/06/15 01:03:06;;;;;;;;;5.75;5.50;;;;;24.03;52.18;101607.22;4974666;28;45503;-83
2021/06/15 01:05:31;;;;;;;;;7.75;7.75;;;;;24.02;51.85;101606.38;4975007;28;45380;-83
2021/06/15 01:08:13;;;;;;;;;8.50;8.25;;;;;24.00;52.43;101602.94;4974888;28;46561;-83
2021/06/15 01:10:41;;;;;;;;;8.00;8.00;;;;;23.96;51.84;101604.19;4974772;28;45438;-83
2021/06/15 01:13:23;;;;;;;;;8.00;7.00;;;;;23.88;52.18;101609.38;4974791;28;45599;-83
2021/06/15 01:16:04;;;;;;;;;7.75;7.75;;;;;23.85;52.17;101610.47;4973759;28;45388;-83
2021/06/15 01:18:34;;;;;;;;;8.25;8.25;;;;;23.82;52.25;101616.13;4973720;28;45396;-82
2021/06/15 01:21:05;;;;;;;;;6.75;6.75;;;;;23.79;51.77;101612.84;4973214;28;45750;-83
2021/06/15 01:24:19;;;;;;;;;7.00;7.00;;;;;23.77;51.54;101618.34;4973965;28;45463;-83
2021/06/15 01:27:19;;;;;;;;;9.50;8.00;;;;;23.75;52.32;101614.06;4950574;28;45559;-83
2021/06/15 01:29:46;;;;;;;;;10.00;7.75;;;;;23.72;51.72;101606.31;4934088;28;45518;-83
2021/06/15 01:32:28;;;;;;;;;11.50;8.25;;;;;23.72;52.16;101611.69;4951195;28;45547;-83
2021/06/15 01:34:55;;;;;;;;;8.25;7.00;;;;;23.67;52.11;101604.84;4953006;28;45584;-83
2021/06/15 01:37:34;;;;;;;;;10.50;8.25;;;;;23.64;51.84;101594.38;4950220;28;45421;-83
2021/06/15 01:40:19;;;;;;;;;10.75;7.25;;;;;23.63;52.84;101591.81;4951603;28;46663;-83
2021/06/15 01:42:48;;;;;;;;;7.50;6.25;;;;;23.63;52.39;101589.97;4951581;28;45357;-82
2021/06/15 01:45:24;;;;;;;;;6.25;6.25;;;;;23.61;52.27;101589.25;4951327;28;45413;-83
2021/06/15 01:48:17;;;;;;;;;8.75;6.75;;;;;23.60;52.86;101590.22;4951821;28;45412;-80
2021/06/15 01:50:45;;;;;;;;;8.75;7.50;;;;;23.56;52.92;101588.78;4939475;28;46363;-82
2021/06/15 01:53:14;;;;;;;;;10.25;7.50;;;;;23.50;52.61;101599.19;4952373;28;45613;-82
2021/06/15 01:55:55;;;;;;;;;8.00;7.00;;;;;23.50;53.11;101599.19;4952358;28;45541;-83
2021/06/15 01:58:27;;;;;;;;;7.25;7.25;;;;;23.45;52.49;101594.19;4969001;28;45487;-83
2021/06/15 02:00:55;;;;;;;;;7.00;7.00;;;;;23.43;52.57;101601.50;4972015;28;46165;-83
2021/06/15 02:03:22;;;;;;;;;7.75;7.00;;;;;23.39;53.05;101597.41;4973115;28;45910;-82
2021/06/15 02:05:54;;;;;;;;;7.00;7.00;;;;;23.34;52.57;101588.88;4971715;28;46091;-83
2021/06/15 02:08:34;;;;;;;;;8.00;8.00;;;;;23.33;53.33;101595.22;4972997;28;45372;-83
2021/06/15 02:11:00;;;;;;;;;10.00;8.75;;;;;23.30;53.13;101607.06;4974850;28;46785;-83
2021/06/15 02:13:29;;;;;;;;;9.00;7.50;;;;;23.27;53.50;101603.75;4973134;28;45291;-83
2021/06/15 02:15:57;;;;;;;;;8.00;7.00;;;;;23.24;53.37;101609.41;4973128;28;45570;-83
2021/06/15 02:18:24;;;;;;;;;7.75;7.50;;;;;23.18;53.39;101595.53;4971654;28;45428;-83
2021/06/15 02:20:50;;;;;;;;;9.50;8.75;;;;;23.14;53.89;101599.44;4972427;28;46929;-77
2021/06/15 02:23:22;;;;;;;;;9.00;8.75;;;;;23.12;53.01;101608.56;4973354;28;45518;-83
2021/06/15 02:25:57;;;;;;;;;7.25;7.25;;;;;23.08;52.72;101599.09;4972621;28;45569;-83
2021/06/15 02:28:23;;;;;;;;;7.00;7.00;;;;;23.06;52.76;101595.66;4971740;28;45487;-82
2021/06/15 02:30:48;;;;;;;;;9.25;7.00;;;;;23.04;52.48;101598.47;4972548;28;45455;-84
2021/06/15 02:33:18;;;;;;;;;8.00;8.00;;;;;23.04;52.78;101600.31;4973010;28;45880;-80
2021/06/15 02:35:56;;;;;;;;;10.00;8.75;;;;;23.02;53.04;101597.75;4973305;28;45674;-80
2021/06/15 02:38:28;;;;;;;;;7.00;7.00;;;;;23.01;52.61;101598.72;4973306;28;45541;-82
2021/06/15 02:40:59;;;;;;;;;7.00;6.50;;;;;23.02;52.64;101604.94;4976941;28;45804;-83
2021/06/15 02:43:26;;;;;;;;;9.00;7.00;;;;;;;;4975307;28;45902;-84
2021/06/15 02:45:54;;;;;;;;;6.75;6.75;;;;;22.98;52.90;101603.50;4976240;28;45553;-84
2021/06/15 02:48:23;;;;;;;;;7.25;7.25;;;;;22.95;53.15;101604.59;4976301;28;45463;-83
2021/06/15 02:50:50;;;;;;;;;7.75;7.00;;;;;22.90;52.54;101594.22;4975330;28;45478;-83
2021/06/15 02:53:21;;;;;;;;;10.50;7.00;;;;;22.88;53.08;101603.38;4975684;28;45934;-83
2021/06/15 02:56:17;;;;;;;;;12.25;7.75;;;;;22.86;53.00;101608.81;4975866;28;46033;-84
2021/06/15 02:58:44;;;;;;;;;8.00;8.00;;;;;22.80;53.35;101600.44;4976868;28;45500;-83
2021/06/15 03:01:10;;;;;;;;;7.25;6.75;;;;;22.78;53.28;101600.56;4975565;28;45573;-83
2021/06/15 03:03:36;;;;;;;;;8.75;7.00;;;;;22.75;53.44;101606.16;4973831;28;46978;-84
2021/06/15 03:06:06;;;;;;;;;7.00;7.00;;;;;22.75;53.45;101610.66;4975585;28;47783;-84
2021/06/15 03:08:33;;;;;;;;;7.00;6.50;;;;;22.69;53.54;101603.97;4975238;28;45454;-84
2021/06/15 03:10:58;;;;;;;;;7.50;7.50;;;;;22.71;53.91;101603.84;4977326;28;46435;-83
2021/06/15 03:13:36;;;;;;;;;9.50;8.00;;;;;22.69;53.96;101605.81;4975374;28;45630;-82
2021/06/15 03:16:05;;;;;;;;;9.25;6.25;;;;;22.65;53.93;101603.38;4976516;28;45375;-84
2021/06/15 03:19:03;;;;;;;;;9.00;7.25;;;;;22.62;53.40;101608.97;4989308;28;45502;-83
2021/06/15 03:21:31;;;;;;;;;8.00;6.75;;;;;22.59;53.80;101608.38;4974837;28;46342;-81
2021/06/15 03:24:02;;;;;;;;;8.75;8.75;;;;;22.56;53.64;101598.75;4975630;28;45745;-84
2021/06/15 03:26:34;;;;;;;;;8.75;7.50;;;;;22.54;53.70;101598.00;4975425;28;45363;-83
2021/06/15 03:29:01;;;;;;;;;11.25;8.75;;;;;22.54;53.49;101595.34;4977053;28;45344;-82
2021/06/15 03:31:31;;;;;;;;;6.25;5.00;;;;;22.51;54.10;101594.75;4975473;28;45709;-83
2021/06/15 03:33:59;;;;;;;;;6.25;6.25;;;;;22.50;53.35;101595.69;4974488;28;47728;-83
2021/06/15 03:36:25;;;;;;;;;10.25;8.75;;;;;22.46;53.64;101591.59;4975265;28;45726;-83
2021/06/15 03:38:55;;;;;;;;;8.25;7.00;;;;;22.47;53.54;101601.31;4975633;28;45764;-83
2021/06/15 03:41:22;;;;;;;;;8.50;8.00;;;;;22.43;53.88;101603.38;4975272;28;46393;-84
2021/06/15 03:43:52;;;;;;;;;8.50;7.75;;;;;22.40;54.04;101615.19;4974442;28;45615;-83
2021/06/15 03:46:21;;;;;;;;;11.50;9.00;;;;;22.39;53.83;101609.94;4973637;28;45501;-84
2021/06/15 03:48:49;;;;;;;;;10.25;9.75;;;;;22.37;53.57;101615.44;4974588;28;45516;-85
2021/06/15 03:51:22;;;;;;;;;10.25;10.00;;;;;22.32;53.91;101606.06;4974512;28;45626;-83
2021/06/15 03:53:48;;;;;;;;;15.25;13.00;;;;;22.32;53.52;101617.63;4976078;28;45319;-83
2021/06/15 03:56:14;;;;;;;;;11.75;10.00;;;;;22.28;53.64;101610.78;4976247;28;45770;-84
2021/06/15 03:58:40;;;;;;;;;14.00;14.00;;;;;22.25;53.56;101604.84;4974472;28;45585;-83
2021/06/15 04:01:09;;;;;;;;;14.25;12.25;;;;;22.22;53.79;101607.75;4974762;28;46578;-83
2021/06/15 04:03:38;;;;;;;;;12.75;11.50;;;;;22.21;53.88;101614.09;4973327;28;45597;-83
2021/06/15 04:06:06;;;;;;;;;16.50;14.00;;;;;22.21;53.72;101614.94;4975803;28;45478;-83
2021/06/15 04:08:33;;;;;;;;;14.75;13.00;;;;;22.21;53.92;101614.09;4973979;28;45385;-83
2021/06/15 04:11:00;;;;;;;;;14.25;13.00;;;;;22.20;53.68;101609.72;4975532;28;45531;-82
2021/06/15 04:13:27;;;;;;;;;19.00;13.50;;;;;22.18;54.20;101607.13;4974951;28;45494;-83
2021/06/15 04:15:55;;;;;;;;;14.00;13.00;;;;;22.20;53.88;101610.56;4974949;28;45423;-83
2021/06/15 04:18:24;;;;;;;;;18.50;14.50;;;;;22.19;53.67;101608.00;4974963;28;45482;-83
2021/06/15 04:20:52;;;;;;;;;15.50;14.25;;;;;22.16;54.17;101601.06;4973965;28;46613;-83
2021/06/15 04:23:28;;;;;;;;;17.50;13.75;;;;;22.17;54.03;101596.53;4973730;28;45918;-83
2021/06/15 04:25:54;;;;;;;;;10.75;10.75;;;;;22.13;53.75;101603.94;4975231;28;45257;-83
2021/06/15 04:28:20;;;;;;;;;13.00;13.00;;;;;22.17;54.25;101618.81;4972681;28;45961;-83
2021/06/15 04:30:45;;;;;;;;;12.25;12.25;;;;;22.20;54.04;101615.91;4975146;28;45483;-84
2021/06/15 04:33:16;;;;;;;;;14.50;13.50;;;;;22.21;55.11;101608.72;4974507;28;45520;-83
2021/06/15 04:35:46;;;;;;;;;14.00;11.25;;;;;22.22;55.39;101615.78;4974118;28;45542;-84
2021/06/15 04:38:20;;;;;;;;;15.00;13.50;;;;;22.23;55.11;101617.47;4975838;28;45442;-83
2021/06/15 04:40:49;;;;;;;;;12.75;11.75;;;;;22.23;54.93;101617.47;4974098;28;45576;-83
2021/06/15 04:43:43;;;;;;;;;13.00;11.50;;;;;22.27;55.50;101622.47;4972747;28;45981;-83
2021/06/15 04:46:39;;;;;;;;;17.75;13.75;;;;;22.29;55.07;101628.59;4972382;28;45563;-83
2021/06/15 04:49:12;;;;;;;;;16.00;13.75;;;;;22.30;54.92;101627.59;4972790;28;45614;-83
2021/06/15 04:51:39;;;;;;;;;13.25;11.25;;;;;22.35;55.32;101635.28;4970333;28;46286;-84
2021/06/15 04:54:06;;;;;;;;;11.00;11.00;;;;;22.42;54.62;101638.31;4973997;28;45698;-83
2021/06/15 04:56:31;;;;;;;;;13.25;13.00;;;;;22.44;54.67;101639.03;4974355;28;45442;-83
2021/06/15 04:59:00;;;;;;;;;10.50;9.75;;;;;22.50;54.55;101644.78;4975971;28;45312;-83
2021/06/15 05:01:27;;;;;;;;;13.00;10.50;;;;;22.55;54.67;101647.09;4972660;28;45799;-83
2021/06/15 05:03:54;;;;;;;;;12.00;10.50;;;;;22.61;54.01;101652.84;4973708;28;45431;-83
2021/06/15 05:06:20;;;;;;;;;11.00;10.50;;;;;22.66;54.12;101647.13;4974346;28;45322;-84
2021/06/15 05:09:01;;;;;;;;;12.00;11.00;;;;;22.73;54.05;101650.16;4972654;28;45973;-83
2021/06/15 05:11:35;;;;;;;;;11.75;10.50;;;;;22.78;53.78;101648.81;4973208;28;45557;-83
2021/06/15 05:14:06;;;;;;;;;9.75;8.25;;;;;22.81;53.85;101640.53;4972813;28;45697;-83
2021/06/15 05:16:33;;;;;;;;;12.00;9.00;;;;;22.86;53.14;101653.53;4971391;28;45439;-83
2021/06/15 05:18:59;;;;;;;;;10.00;9.50;;;;;22.83;53.57;101651.97;4974330;28;46638;-84
2021/06/15 05:21:32;;;;;;;;;11.00;9.75;;;;;22.87;53.45;101663.31;4973704;28;45563;-84
2021/06/15 05:24:03;;;;;;;;;8.75;8.00;;;;;22.93;53.40;101670.88;4974317;28;45479;-81
2021/06/15 05:26:30;;;;;;;;;10.00;8.75;;;;;23.00;53.59;101666.72;4972628;28;45566;-83
2021/06/15 05:28:56;;;;;;;;;11.00;10.50;;;;;23.07;53.18;101654.50;4972928;28;45561;-81
2021/06/15 05:31:21;;;;;;;;;7.00;6.00;;;;;23.14;53.44;101666.47;4974442;28;45499;-77
2021/06/15 05:33:46;;;;;;;;;11.00;9.75;;;;;23.18;53.30;101659.88;4977560;28;45487;-79
2021/06/15 05:36:12;;;;;;;;;14.50;13.00;;;;;23.34;53.67;101669.34;4970889;28;45497;-76
2021/06/15 05:38:37;;;;;;;;;13.50;11.00;;;;;23.48;53.01;101673.56;4973194;28;45270;-80
2021/06/15 05:41:03;;;;;;;;;12.00;10.50;;;;;23.61;53.28;101659.00;4971106;28;46506;-80
2021/06/15 05:43:28;;;;;;;;;15.00;10.50;;;;;23.80;52.70;101670.91;4984456;28;49529;-85
2021/06/15 05:45:54;;;;;;;;;12.00;10.50;;;;;24.12;52.25;101673.56;4967596;28;45563;-81
2021/06/15 05:48:19;;;;;;;;;9.50;9.25;;;;;24.55;52.38;101678.81;4970686;28;47494;-82
2021/06/15 05:50:45;;;;;;;;;11.50;9.75;;;;;25.13;50.85;101673.69;4972901;28;46570;-82
2021/06/15 05:53:11;;;;;;;;;12.00;12.00;;;;;25.74;50.56;101672.63;4974086;28;45666;-82
2021/06/15 05:55:36;;;;;;;;;12.00;11.50;;;;;26.15;49.21;101659.84;4972937;28;45781;-82
2021/06/15 05:58:02;;;;;;;;;12.50;8.50;;;;;26.53;48.59;101669.72;4972210;28;45627;-81
2021/06/15 06:00:27;;;;;;;;;11.50;10.00;;;;;26.63;48.28;101669.69;4972845;28;46471;-80
2021/06/15 06:02:52;;;;;;;;;15.75;10.75;;;;;26.59;48.24;101668.28;4974245;28;45459;-80
2021/06/15 06:10:28;;;;;;;;;12.25;10.25;;;;;26.46;47.99;101673.97;4971915;28;45525;-79
2021/06/15 06:12:53;;;;;;;;;13.25;8.25;;;;;26.41;48.09;101677.09;4971779;28;45570;-79
2021/06/15 06:15:18;;;;;;;;;12.25;10.00;;;;;26.33;47.89;101678.81;4975562;28;46653;-79
2021/06/15 06:17:44;;;;;;;;;12.25;10.50;;;;;26.18;47.70;101675.72;4976561;28;45605;-79
2021/06/15 06:20:12;;;;;;;;;11.00;11.00;;;;;26.03;48.53;101678.00;4977049;28;45954;-81
2021/06/15 06:22:38;;;;;;;;;10.75;10.75;;;;;26.00;48.49;101675.63;4976972;28;45687;-81
2021/06/15 06:25:06;;;;;;;;;14.00;12.25;;;;;25.94;48.47;101678.88;4975781;28;45539;-80
2021/06/15 06:27:32;;;;;;;;;13.00;12.75;;;;;25.88;48.01;101674.06;4976030;28;45395;-81
2021/06/15 06:29:57;;;;;;;;;13.50;12.25;;;;;25.85;48.10;101667.13;4976813;28;46350;-81
2021/06/15 06:32:23;;;;;;;;;12.25;10.00;;;;;25.80;48.03;101658.63;4976525;28;45344;-82
2021/06/15 06:34:48;;;;;;;;;12.25;10.25;;;;;25.72;47.69;101669.22;4978347;28;45311;-81
2021/06/15 06:37:13;;;;;;;;;11.00;11.00;;;;;25.66;47.79;101676.03;4977097;28;45428;-81
2021/06/15 06:39:39;;;;;;;;;12.50;11.75;;;;;25.65;48.01;101679.72;4975703;28;45510;-82
2021/06/15 06:42:05;;;;;;;;;12.25;12.25;;;;;25.63;48.26;101670.06;4975889;28;45515;-82
2021/06/15 06:44:30;;;;;;;;;11.25;11.25;;;;;25.63;47.75;101670.94;4976319;28;45363;-81
2021/06/15 06:46:56;;;;;;;;;12.00;12.00;;;;;25.65;48.56;101673.47;4977776;28;45552;-82
2021/06/15 06:49:21;;;;;;;;;15.00;13.75;;;;;25.63;48.08;101670.94;4976696;28;46124;-82
2021/06/15 06:51:46;;;;;;;;;18.75;14.50;;;;;25.63;48.52;101667.38;4975976;28;45516;-81
2021/06/15 06:54:12;;;;;;;;;12.25;11.25;;;;;25.63;48.30;101668.25;4976279;28;45322;-82
2021/06/15 06:56:37;;;;;;;;;15.00;13.00;;;;;25.68;48.11;101679.41;4974121;28;45343;-82
2021/06/15 06:59:02;;;;;;;;;17.50;11.50;;;;;25.70;48.50;101676.59;4977505;28;49863;-82
2021/06/15 07:01:28;;;;;;;;;12.00;12.00;;;;;25.70;48.62;101673.91;4975331;28;45430;-82
2021/06/15 07:03:53;;;;;;;;;13.75;11.25;;;;;25.75;48.29;101669.81;4975832;28;45364;-81
2021/06/15 07:06:19;;;;;;;;;15.00;14.00;;;;;25.79;48.36;101674.91;4975889;28;45462;-82
2021/06/15 07:08:45;;;;;;;;;15.75;13.00;;;;;25.79;48.43;101667.72;4975728;28;46523;-81
2021/06/15 07:11:10;;;;;;;;;16.50;13.75;;;;;25.86;48.45;101676.06;4976757;28;45420;-81
2021/06/15 07:13:36;;;;;;;;;14.25;12.25;;;;;25.89;48.67;101670.38;4976690;28;45389;-81
2021/06/15 07:16:01;;;;;;;;;18.00;14.75;;;;;25.96;48.72;101679.59;4974279;28;45352;-82
2021/06/15 07:18:26;;;;;;;;;18.75;16.00;;;;;25.99;48.70;101673.91;4975756;28;46697;-81
2021/06/15 07:20:52;;;;;;;;;17.75;13.00;;;;;26.06;48.09;101676.91;4977347;28;45378;-80
2021/06/15 07:23:18;;;;;;;;;15.25;12.50;;;;;26.09;48.30;101672.06;4976395;28;45424;-82
2021/06/15 07:25:43;;;;;;;;;14.00;13.25;;;;;26.17;48.75;101674.03;4975091;28;45330;-81
2021/06/15 07:28:08;;;;;;;;;16.00;12.75;;;;;26.22;48.01;101677.16;4975225;28;45582;-82
2021/06/15 07:30:34;;;;;;;;;11.25;10.50;;;;;26.26;48.25;101675.88;4975250;28;45564;-81
2021/06/15 07:32:59;;;;;;;;;14.50;14.50;;;;;26.30;48.18;101669.16;4975720;28;45577;-82
2021/06/15 07:35:26;;;;;;;;;15.75;14.00;;;;;26.41;47.61;101676.22;4975905;28;45348;-82
2021/06/15 07:37:53;;;;;;;;;16.25;13.00;;;;;26.49;47.52;101677.25;4976862;28;46398;-81
2021/06/15 07:40:22;;;;;;;;;16.00;14.00;;;;;26.60;47.43;101680.75;4974801;28;45371;-83
2021/06/15 07:42:50;;;;;;;;;12.25;11.25;;;;;26.66;47.53;101672.06;4974415;28;45902;-82
2021/06/15 07:45:15;;;;;;;;;15.50;15.00;;;;;26.77;47.44;101666.50;4975229;28;45491;-82
2021/06/15 07:47:41;;;;;;;;;19.25;15.50;;;;;26.91;47.42;101660.59;4975008;28;45435;-82
2021/06/15 07:50:07;;;;;;;;;15.75;14.00;;;;;27.01;46.37;101655.16;4974560;28;46776;-81
2021/06/15 07:52:34;;;;;;;;;19.75;16.25;;;;;27.20;46.44;101662.31;4975974;28;45506;-81
2021/06/15 07:55:00;;;;;;;;;16.50;13.25;;;;;27.34;46.01;101658.25;4974384;28;45530;-83
2021/06/15 07:57:25;;;;;;;;;17.00;16.25;;;;;27.41;46.13;101651.25;4975826;28;46203;-83
2021/06/15 07:59:50;;;;;;;;;16.75;13.50;;;;;27.53;45.24;101655.41;4959617;28;45462;-85
2021/06/15 08:02:16;;;;;;;;;14.50;13.75;;;;;27.65;45.47;101661.41;4975396;28;45261;-84
2021/06/15 08:04:42;;;;;;;;;14.75;13.00;;;;;27.74;45.39;101655.13;4976346;28;45337;-85
2021/06/15 08:07:07;;;;;;;;;16.00;13.25;;;;;27.83;45.36;101659.59;4974693;28;45598;-84
2021/06/15 08:09:32;;;;;;;;;16.75;15.00;;;;;27.95;45.29;101655.63;4972580;28;45418;-83
2021/06/15 08:11:58;;;;;;;;;17.00;14.25;;;;;28.12;45.17;101653.91;4973561;28;45545;-82
2021/06/15 08:14:23;;;;;;;;;14.00;12.75;;;;;28.25;44.72;101654.34;4973527;28;45367;-83
2021/06/15 08:16:48;;;;;;;;;14.75;14.75;;;;;28.45;45.00;101651.44;4974784;28;46594;-83
2021/06/15 08:19:14;;;;;;;;;14.00;12.75;;;;;28.62;44.66;101644.28;4972709;28;45504;-81
2021/06/15 08:21:39;;;;;;;;;16.00;14.75;;;;;28.84;44.34;101649.94;4973323;28;45419;-84
2021/06/15 08:24:05;;;;;;;;;14.75;13.25;;;;;29.08;43.83;101643.81;4972843;28;45482;-82
2021/06/15 08:26:30;;;;;;;;;15.50;13.75;;;;;29.34;43.34;101646.41;4972868;28;46293;-82
2021/06/15 08:28:56;;;;;;;;;18.75;16.00;;;;;29.52;42.92;101635.41;4972738;28;45416;-84
2021/06/15 08:31:21;;;;;;;;;14.00;13.00;;;;;29.80;42.36;101645.94;4972982;28;45741;-84
2021/06/15 08:33:47;;;;;;;;;14.75;14.00;;;;;30.05;42.09;101642.19;4972328;28;45427;-84
2021/06/15 08:36:12;;;;;;;;;18.25;13.75;;;;;30.18;41.83;101641.72;4972989;28;45427;-85
2021/06/15 08:38:37;;;;;;;;;11.25;11.25;;;;;30.47;41.89;101641.13;4971460;28;45459;-84
2021/06/15 08:41:03;;;;;;;;;13.75;13.50;;;;;30.94;41.02;101637.56;4973339;28;45370;-84
2021/06/15 08:43:28;;;;;;;;;15.25;14.25;;;;;31.38;39.91;101631.56;4973142;28;45315;-84
2021/06/15 08:45:53;;;;;;;;;14.25;13.25;;;;;31.82;39.13;101639.91;5004025;28;47343;-84
2021/06/15 08:48:21;;;;;;;;;16.00;14.25;;;;;32.33;39.38;101644.66;4972692;28;45534;-85
2021/06/15 08:50:47;;;;;;;;;17.00;15.50;;;;;32.71;38.79;101648.16;4972729;28;45505;-84
2021/06/15 08:53:12;;;;;;;;;21.25;13.00;;;;;33.30;37.40;101641.75;4971943;28;45494;-81
2021/06/15 08:55:39;;;;;;;;;15.00;13.50;;;;;35.06;36.14;101644.34;4973234;28;46181;-82
2021/06/15 08:58:12;;;;;;;;;20.50;17.75;;;;;37.88;32.95;101638.59;4970629;28;45687;-80
2021/06/15 09:00:38;;;;;;;;;18.00;16.00;;;;;40.32;31.00;101640.97;4972297;28;45518;-83
2021/06/15 09:03:03;;;;;;;;;14.25;12.25;;;;;42.20;28.64;101641.72;4973048;28;45591;-82
2021/06/15 09:05:29;;;;;;;;;13.50;12.25;;;;;43.59;26.25;101658.78;4971933;28;45705;-80
2021/06/15 09:07:57;;;;;;;;;16.00;14.25;;;;;44.94;25.39;101660.97;4971985;28;45500;-82
2021/06/15 09:10:34;;;;;;;;;16.75;12.75;;;;;46.55;23.91;101654.81;4972151;28;45298;-84
2021/06/15 09:13:00;;;;;;;;;15.25;13.75;;;;;48.22;22.46;101659.34;4968669;28;45448;-82
2021/06/15 09:15:26;;;;;;;;;16.00;11.50;;;;;49.61;21.38;101662.69;4972160;28;45537;-82
2021/06/15 09:17:51;;;;;;;;;14.75;12.75;;;;;50.98;19.83;101661.03;4972109;28;45647;-83
2021/06/15 09:20:29;;;;;;;;;11.25;10.25;;;;;52.03;19.17;101662.53;4972117;28;45491;-82
2021/06/15 09:23:11;;;;;;;;;12.00;10.25;;;;;53.14;18.20;101665.88;4972366;28;45321;-82
2021/06/15 09:25:37;;;;;;;;;11.50;11.50;;;;;53.47;17.04;101668.19;4972083;28;46149;-83
2021/06/15 09:28:19;;;;;;;;;12.75;12.75;;;;;53.25;17.14;101667.22;4971503;28;45447;-83
2021/06/15 09:31:02;;;;;;;;;9.50;9.50;;;;;52.54;16.61;101673.13;4972282;28;45466;-84
2021/06/15 09:33:36;;;;;;;;;7.75;7.25;;;;;51.74;17.32;101661.09;4971511;28;45909;-82
2021/06/15 09:36:06;;;;;;;;;10.00;9.00;;;;;51.08;17.70;101657.97;4971669;28;46233;-83
2021/06/15 09:38:33;;;;;;;;;12.00;9.50;;;;;50.18;18.26;101664.47;4970161;28;45744;-84
2021/06/15 09:40:59;;;;;;;;;12.50;9.75;;;;;49.51;18.26;101662.88;4972823;28;45663;-82
2021/06/15 09:43:24;;;;;;;;;12.50;9.75;;;;;48.93;17.81;101657.63;4971733;28;45729;-84
2021/06/15 09:45:49;;;;;;;;;14.00;12.00;;;;;48.55;18.72;101656.72;4973457;28;45448;-84
2021/06/15 09:48:26;;;;;;;;;11.50;11.25;;;;;48.32;18.57;101670.38;4975368;28;59988;-83
2021/06/15 09:50:54;;;;;;;;;10.75;10.00;;;;;48.12;18.44;101655.88;4975519;28;45443;-83
2021/06/15 09:53:34;;;;;;;;;13.00;11.25;;;;;47.91;19.07;101664.41;4978623;28;45380;-83
2021/06/15 09:56:11;;;;;;;;;11.75;10.00;;;;;47.78;19.12;101660.38;4982617;28;46642;-80
2021/06/15 09:58:48;;;;;;;;;12.75;10.50;;;;;47.66;18.96;101659.94;4976752;28;45347;-79
2021/06/15 10:01:27;;;;;;;;;9.00;7.50;;;;;47.69;18.76;101664.94;4977694;28;45422;-79
2021/06/15 10:04:09;;;;;;;;;10.75;10.25;;;;;47.45;19.21;101664.00;4996252;28;45668;-79
2021/06/15 10:06:35;;;;;;;;;13.00;10.00;;;;;46.91;18.89;101664.94;4975474;28;47061;-80
2021/06/15 10:09:01;;;;;;;;;8.75;8.75;;;;;46.04;19.37;101671.59;4987238;28;45423;-79
2021/06/15 10:11:27;;;;;;;;;9.00;9.00;;;;;45.35;19.79;101657.44;4976381;28;45307;-79
2021/06/15 10:13:52;;;;;;;;;12.00;10.75;;;;;44.78;20.62;101662.03;4977664;28;45455;-78
2021/06/15 10:16:19;;;;;;;;;10.75;10.75;;;;;44.17;20.39;101662.56;4975645;28;45486;-79
2021/06/15 10:18:44;;;;;;;;;10.00;8.75;;;;;43.68;21.37;101659.97;4975738;28;45613;-80
2021/06/15 10:21:10;;;;;;;;;11.50;11.25;;;;;43.31;21.55;101659.91;4975189;28;45429;-79
2021/06/15 10:23:35;;;;;;;;;10.50;10.50;;;;;42.85;21.17;101664.94;4974811;28;45267;-80
2021/06/15 10:26:02;;;;;;;;;9.75;9.75;;;;;42.57;21.38;101652.16;4981231;28;45494;-79
2021/06/15 10:28:30;;;;;;;;;10.50;9.00;;;;;42.29;22.39;101650.41;4973729;28;45600;-79
2021/06/15 10:31:02;;;;;;;;;10.00;8.50;;;;;41.84;22.66;101656.91;4975004;28;45514;-82
2021/06/15 10:33:27;;;;;;;;;11.00;9.00;;;;;41.43;22.51;101642.38;4973026;28;45414;-77
2021/06/15 10:35:55;;;;;;;;;11.00;8.25;;;;;41.09;22.74;101654.44;4976914;28;45463;-84
2021/06/15 10:38:29;;;;;;;;;9.25;9.00;;;;;40.68;23.06;101659.13;4974705;28;45718;-77
2021/06/15 10:40:59;;;;;;;;;10.75;9.00;;;;;40.40;23.48;101641.41;4978035;28;45452;-80
2021/06/15 10:43:35;;;;;;;;;10.75;10.75;;;;;40.31;23.10;101645.63;4973284;28;45360;-81
2021/06/15 10:46:03;;;;;;;;;12.25;10.50;;;;;39.95;23.38;101645.88;4972709;28;46192;-76
2021/06/15 10:48:40;;;;;;;;;10.50;8.50;;;;;39.66;23.69;101643.81;4974606;28;45449;-79
2021/06/15 10:51:39;;;;;;;;;13.25;11.50;;;;;39.22;23.86;101636.88;4973212;28;45378;-82
2021/06/15 10:54:30;;;;;;;;;11.00;8.00;;;;;38.80;24.42;101638.72;4961476;28;45570;-82
2021/06/15 10:57:14;;;;;;;;;8.75;7.75;;;;;38.46;24.39;101649.22;4959484;28;46172;-79
2021/06/15 11:00:07;;;;;;;;;9.25;7.50;;;;;38.22;24.74;101637.22;4970680;28;45624;-78
2021/06/15 11:02:33;;;;;;;;;8.50;7.00;;;;;38.08;25.08;101638.41;4974504;28;45455;-78
2021/06/15 11:05:37;;;;;;;;;8.50;7.50;;;;;37.93;24.42;101633.28;4973126;28;45569;-78
2021/06/15 11:08:16;;;;;;;;;10.25;9.25;;;;;37.86;25.01;101630.59;4973761;28;45448;-78
2021/06/15 11:10:48;;;;;;;;;9.25;7.75;;;;;37.76;25.55;101612.94;4974162;28;45638;-78
2021/06/15 11:13:13;;;;;;;;;12.00;9.75;;;;;37.79;25.21;101621.53;4974133;28;45501;-82
2021/06/15 11:16:02;;;;;;;;;9.00;8.50;;;;;37.71;25.18;101619.09;4974351;28;45432;-78
2021/06/15 11:18:27;;;;;;;;;12.25;9.25;;;;;37.71;25.84;101623.75;4973554;28;45957;-79
2021/06/15 11:20:54;;;;;;;;;10.75;10.75;;;;;37.57;25.70;101618.38;4974007;28;45534;-77
2021/06/15 11:23:27;;;;;;;;;10.75;10.25;;;;;37.51;26.36;101613.78;4974064;28;45646;-79
2021/06/15 11:26:03;;;;;;;;;11.00;10.25;;;;;37.52;25.85;101618.19;4973476;28;45495;-79
2021/06/15 11:28:36;;;;;;;;;11.50;10.00;;;;;37.40;25.27;101606.28;4974211;28;46580;-78
2021/06/15 11:31:22;;;;;;;;;11.75;9.25;;;;;37.39;25.16;101610.09;4976746;28;45530;-75
2021/06/15 11:34:04;;;;;;;;;9.00;9.00;;;;;37.37;25.98;101603.13;4974453;28;45404;-78